createdAt,value
2018-09-17T00:01:11.134Z,101260.55
2018-09-17T00:03:40.549Z,101262.97
2018-09-17T00:06:10.327Z,101266.12
2018-09-17T00:08:39.775Z,101255.39
2018-09-17T00:11:09.450Z,101257.47
2018-09-17T00:13:38.962Z,101260.41
2018-09-17T00:16:08.563Z,101264.27
2018-09-17T00:18:37.967Z,101272.38
2018-09-17T00:21:07.532Z,101264.83
2018-09-17T00:23:37.622Z,101271.08
2018-09-17T00:26:07.561Z,101279.37
2018-09-17T00:28:36.827Z,101283.02
2018-09-17T00:31:06.147Z,101287.04
2018-09-17T00:33:35.852Z,101287.36
2018-09-17T00:36:05.918Z,101288.72
2018-09-17T00:38:35.473Z,101291.91
2018-09-17T00:41:05.097Z,101290.01
2018-09-17T00:43:34.791Z,101288.59
2018-09-17T00:46:04.166Z,101288.25
2018-09-17T00:48:33.932Z,101282.11
2018-09-17T00:51:03.856Z,101278.94
2018-09-17T00:53:33.863Z,101291.13
2018-09-17T00:56:03.553Z,101287.34
2018-09-17T00:58:33.383Z,101287.17
2018-09-17T01:01:02.872Z,101289.66
2018-09-17T01:03:32.638Z,101291.06
2018-09-17T01:06:02.081Z,101289.39
2018-09-17T01:08:31.794Z,101290.04
2018-09-17T01:11:01.263Z,101292.70
2018-09-17T01:13:30.801Z,101301.56
2018-09-17T01:16:00.710Z,101301.27
2018-09-17T01:18:30.198Z,101300.22
2018-09-17T01:21:00.194Z,101302.83
2018-09-17T01:23:29.660Z,101310.81
2018-09-17T01:25:59.187Z,101309.83
2018-09-17T01:28:28.789Z,101316.45
2018-09-17T01:30:58.986Z,101314.87
2018-09-17T01:33:28.883Z,101315.19
2018-09-17T01:35:58.615Z,101313.60
2018-09-17T01:38:28.354Z,101309.64
2018-09-17T01:40:57.973Z,101319.17
2018-09-17T01:43:27.738Z,101313.48
2018-09-17T01:45:57.378Z,101318.41
2018-09-17T01:48:26.721Z,101311.10
2018-09-17T01:50:56.633Z,101320.60
2018-09-17T01:53:26.128Z,101328.19
2018-09-17T01:55:56.034Z,101328.29
2018-09-17T01:58:25.605Z,101332.88
2018-09-17T02:00:56.553Z,101332.13
2018-09-17T02:03:26.002Z,101323.61
2018-09-17T02:05:55.686Z,101334.64
2018-09-17T02:08:25.036Z,101328.34
2018-09-17T02:10:54.531Z,101325.97
2018-09-17T02:13:23.846Z,101334.64
2018-09-17T02:15:53.750Z,101336.15
2018-09-17T02:18:23.026Z,101325.41
2018-09-17T02:20:52.559Z,101321.42
2018-09-17T02:23:22.215Z,101314.53
2018-09-17T02:25:51.763Z,101313.74
2018-09-17T02:28:21.242Z,101302.78
2018-09-17T02:30:51.073Z,101308.03
2018-09-17T02:33:20.308Z,101318.24
2018-09-17T02:35:49.781Z,101322.23
2018-09-17T02:38:19.459Z,101333.91
2018-09-17T02:40:49.050Z,101321.48
2018-09-17T02:43:19.698Z,101308.09
2018-09-17T02:45:49.275Z,101309.77
2018-09-17T02:48:18.909Z,101310.34
2018-09-17T02:50:48.698Z,101303.41
2018-09-17T02:53:18.212Z,101300.00
2018-09-17T02:55:48.279Z,101296.29
2018-09-17T02:58:18.055Z,101298.42
2018-09-17T03:00:47.539Z,101295.61
2018-09-17T03:03:17.290Z,101306.39
2018-09-17T03:05:47.146Z,101311.83
2018-09-17T03:08:16.374Z,101308.19
2018-09-17T03:10:46.806Z,101299.08
2018-09-17T03:13:16.430Z,101309.11
2018-09-17T03:15:54.114Z,101314.42
2018-09-17T03:18:36.431Z,101311.33
2018-09-17T03:21:06.932Z,101310.12
2018-09-17T03:23:38.246Z,101307.38
2018-09-17T03:26:07.730Z,101309.11
2018-09-17T03:28:37.693Z,101318.67
2018-09-17T03:31:07.367Z,101323.59
2018-09-17T03:33:36.874Z,101325.34
2018-09-17T03:36:06.729Z,101321.75
2018-09-17T03:38:45.974Z,101308.63
2018-09-17T03:41:16.649Z,101315.00
2018-09-17T03:43:47.838Z,101314.30
2018-09-17T03:46:17.310Z,101315.23
2018-09-17T03:48:46.990Z,101315.47
2018-09-17T03:51:17.477Z,101313.59
2018-09-17T03:53:47.232Z,101315.89
2018-09-17T03:56:16.707Z,101326.36
2018-09-17T03:58:46.954Z,101339.40
2018-09-17T04:01:16.322Z,101334.17
2018-09-17T04:03:46.248Z,101328.59
2018-09-17T04:06:16.387Z,101334.48
2018-09-17T04:08:45.899Z,101332.14
2018-09-17T04:11:15.799Z,101333.14
2018-09-17T04:13:45.635Z,101331.83
2018-09-17T04:16:15.003Z,101324.38
2018-09-17T04:18:44.884Z,101327.89
2018-09-17T04:21:14.467Z,101326.36
2018-09-17T04:23:44.008Z,101328.74
2018-09-17T04:26:13.802Z,101326.36
2018-09-17T04:28:43.041Z,101329.48
2018-09-17T04:31:12.480Z,101333.03
2018-09-17T04:33:43.061Z,101337.75
2018-09-17T04:36:13.367Z,101339.23
2018-09-17T04:38:43.296Z,101328.02
2018-09-17T04:41:12.515Z,101331.50
2018-09-17T04:43:42.013Z,101331.30
2018-09-17T04:46:11.604Z,101319.59
2018-09-17T04:48:40.836Z,101327.55
2018-09-17T04:51:10.378Z,101324.63
2018-09-17T04:53:40.261Z,101339.81
2018-09-17T04:56:09.808Z,101341.11
2018-09-17T04:58:39.250Z,101342.80
2018-09-17T05:01:09.058Z,101343.66
2018-09-17T05:03:39.424Z,101354.77
2018-09-17T05:06:09.079Z,101351.77
2018-09-17T05:08:38.491Z,101347.57
2018-09-17T05:11:08.048Z,101346.03
2018-09-17T05:13:37.398Z,101349.72
2018-09-17T05:16:07.244Z,101349.73
2018-09-17T05:18:37.531Z,101345.05
2018-09-17T05:21:07.303Z,101356.38
2018-09-17T05:23:36.754Z,101353.38
2018-09-17T05:26:07.345Z,101350.36
2018-09-17T05:28:36.823Z,101339.25
2018-09-17T05:31:06.431Z,101348.91
2018-09-17T05:33:35.818Z,101340.72
2018-09-17T05:36:05.926Z,101339.51
2018-09-17T05:38:35.983Z,101339.63
2018-09-17T05:41:05.255Z,101341.41
2018-09-17T05:43:34.661Z,101348.25
2018-09-17T05:46:04.925Z,101344.91
2018-09-17T05:48:34.995Z,101350.34
2018-09-17T05:51:04.407Z,101350.57
2018-09-17T05:53:34.350Z,101349.55
2018-09-17T05:56:04.741Z,101353.93
2018-09-17T05:58:34.446Z,101351.19
2018-09-17T06:01:04.282Z,101349.86
2018-09-17T06:03:34.317Z,101360.13
2018-09-17T06:06:04.220Z,101347.72
2018-09-17T06:08:34.383Z,101353.15
2018-09-17T06:11:03.817Z,101347.76
2018-09-17T06:13:33.431Z,101349.67
2018-09-17T06:16:03.187Z,101353.07
2018-09-17T06:18:32.638Z,101357.13
2018-09-17T06:21:03.191Z,101360.88
2018-09-17T06:23:32.849Z,101353.94
2018-09-17T06:26:03.518Z,101353.73
2018-09-17T06:28:33.838Z,101349.97
2018-09-17T06:31:03.051Z,101352.58
2018-09-17T06:33:32.590Z,101348.18
2018-09-17T06:36:02.091Z,101350.48
2018-09-17T06:38:31.782Z,101352.10
2018-09-17T06:41:01.554Z,101359.72
2018-09-17T06:43:31.617Z,101356.92
2018-09-17T06:46:01.338Z,101357.97
2018-09-17T06:48:31.142Z,101362.66
2018-09-17T06:51:00.614Z,101365.45
2018-09-17T06:53:30.614Z,101363.22
2018-09-17T06:56:00.327Z,101371.08
2018-09-17T06:58:29.915Z,101363.43
2018-09-17T07:00:59.994Z,101365.39
2018-09-17T07:03:29.481Z,101371.41
2018-09-17T07:05:59.582Z,101369.83
2018-09-17T07:08:29.289Z,101378.73
2018-09-17T07:10:58.802Z,101379.66
2018-09-17T07:13:29.328Z,101373.95
2018-09-17T07:15:58.559Z,101365.65
2018-09-17T07:18:27.787Z,101374.95
2018-09-17T07:20:57.318Z,101376.61
2018-09-17T07:23:27.243Z,101378.31
2018-09-17T07:25:56.510Z,101379.95
2018-09-17T07:28:26.354Z,101383.65
2018-09-17T07:30:56.078Z,101388.84
2018-09-17T07:33:25.822Z,101383.73
2018-09-17T07:35:55.291Z,101383.88
2018-09-17T07:38:24.790Z,101379.32
2018-09-17T07:40:54.653Z,101378.67
2018-09-17T07:43:25.017Z,101389.67
2018-09-17T07:45:54.872Z,101387.27
2018-09-17T07:48:24.244Z,101386.80
2018-09-17T07:50:53.937Z,101385.38
2018-09-17T07:53:23.698Z,101384.52
2018-09-17T07:55:53.714Z,101377.28
2018-09-17T07:58:23.070Z,101377.44
2018-09-17T08:00:52.731Z,101376.55
2018-09-17T08:03:21.975Z,101378.28
2018-09-17T08:05:51.784Z,101369.45
2018-09-17T08:08:21.800Z,101363.30
2018-09-17T08:10:51.010Z,101363.44
2018-09-17T08:13:21.004Z,101361.97
2018-09-17T08:15:50.503Z,101358.08
2018-09-17T08:18:20.260Z,101358.75
2018-09-17T08:20:49.694Z,101347.31
2018-09-17T08:23:19.363Z,101346.03
2018-09-17T08:25:49.084Z,101341.87
2018-09-17T08:28:19.674Z,101346.55
2018-09-17T08:30:49.301Z,101345.27
2018-09-17T08:33:19.626Z,101342.50
2018-09-17T08:35:49.318Z,101340.39
2018-09-17T08:38:18.892Z,101331.65
2018-09-17T08:40:48.739Z,101329.27
2018-09-17T08:43:18.303Z,101326.28
2018-09-17T08:45:48.056Z,101327.36
2018-09-17T08:48:18.079Z,101324.73
2018-09-17T08:50:48.091Z,101328.23
2018-09-17T08:53:17.552Z,101334.45
2018-09-17T08:55:51.150Z,101337.52
2018-09-17T08:58:25.276Z,101325.81
2018-09-17T09:01:07.608Z,101331.80
2018-09-17T09:03:38.699Z,101326.45
2018-09-17T09:06:13.405Z,101326.80
2018-09-17T09:08:43.187Z,101323.58
2018-09-17T09:11:20.414Z,101321.09
2018-09-17T09:13:55.501Z,101314.47
2018-09-17T09:16:25.722Z,101307.02
2018-09-17T09:18:54.923Z,101302.69
2018-09-17T09:21:24.231Z,101303.03
2018-09-17T09:23:53.555Z,101294.20
2018-09-17T09:26:23.060Z,101289.25
2018-09-17T09:28:53.367Z,101287.82
2018-09-17T09:31:22.703Z,101287.91
2018-09-17T09:33:52.574Z,101275.55
2018-09-17T09:36:21.893Z,101278.27
2018-09-17T09:38:51.578Z,101271.94
2018-09-17T09:41:21.139Z,101271.55
2018-09-17T09:43:55.890Z,101265.02
2018-09-17T09:46:25.710Z,101259.66
2018-09-17T09:48:55.142Z,101260.48
2018-09-17T09:51:24.654Z,101257.56
2018-09-17T09:53:54.410Z,101255.32
2018-09-17T09:56:24.515Z,101259.34
2018-09-17T09:58:54.930Z,101248.52
2018-09-17T10:01:27.527Z,101251.10
2018-09-17T10:04:02.348Z,101242.50
2018-09-17T10:06:31.735Z,101238.30
2018-09-17T10:09:06.381Z,101237.17
2018-09-17T10:11:41.175Z,101235.61
2018-09-17T10:14:15.603Z,101231.88
2018-09-17T10:16:50.367Z,101225.69
2018-09-17T10:19:20.257Z,101229.24
2018-09-17T10:21:49.605Z,101232.13
2018-09-17T10:24:19.203Z,101222.50
2018-09-17T10:26:48.880Z,101221.72
2018-09-17T10:29:18.366Z,101213.23
2018-09-17T10:31:47.887Z,101207.53
2018-09-17T10:34:17.399Z,101193.69
2018-09-17T10:36:47.490Z,101198.16
2018-09-17T10:39:17.020Z,101202.27
2018-09-17T10:41:46.492Z,101201.44
2018-09-17T10:44:16.012Z,101199.06
2018-09-17T10:46:45.507Z,101196.55
2018-09-17T10:49:15.022Z,101191.35
2018-09-17T10:51:44.310Z,101185.98
2018-09-17T10:54:13.889Z,101181.31
2018-09-17T10:56:43.316Z,101176.18
2018-09-17T10:59:13.590Z,101176.23
2018-09-17T11:01:43.216Z,101166.09
2018-09-17T11:04:12.751Z,101160.45
2018-09-17T11:06:42.151Z,101161.07
2018-09-17T11:09:12.984Z,101147.85
2018-09-17T11:11:42.419Z,101141.67
2018-09-17T11:14:11.972Z,101143.44
2018-09-17T11:16:41.429Z,101142.70
2018-09-17T11:19:10.946Z,101142.67
2018-09-17T11:21:40.423Z,101146.95
2018-09-17T11:24:09.661Z,101134.66
2018-09-17T11:26:39.016Z,101129.40
2018-09-17T11:29:08.583Z,101131.67
2018-09-17T11:31:38.165Z,101138.57
2018-09-17T11:34:07.409Z,101136.55
2018-09-17T11:36:36.862Z,101132.73
2018-09-17T11:39:08.497Z,101129.05
2018-09-17T11:41:37.731Z,101126.97
2018-09-17T11:44:06.991Z,101122.28
2018-09-17T11:46:36.646Z,101114.78
2018-09-17T11:49:06.482Z,101108.63
2018-09-17T11:51:36.783Z,101112.23
2018-09-17T11:54:06.740Z,101098.03
2018-09-17T11:56:36.177Z,101095.39
2018-09-17T11:59:05.688Z,101102.38
2018-09-17T12:01:41.206Z,101092.98
2018-09-17T12:04:12.728Z,101092.39
2018-09-17T12:06:47.470Z,101094.27
2018-09-17T12:09:17.006Z,101093.66
2018-09-17T12:11:46.286Z,101083.55
2018-09-17T12:14:15.775Z,101083.94
2018-09-17T12:16:45.514Z,101086.31
2018-09-17T12:19:15.023Z,101076.95
2018-09-17T12:21:44.526Z,101080.16
2018-09-17T12:24:14.008Z,101077.85
2018-09-17T12:26:43.539Z,101079.54
2018-09-17T12:29:13.024Z,101072.45
2018-09-17T12:31:42.594Z,101069.32
2018-09-17T12:34:12.163Z,101060.55
2018-09-17T12:36:41.570Z,101059.12
2018-09-17T12:39:12.761Z,101062.28
2018-09-17T12:41:42.393Z,101063.92
2018-09-17T12:44:11.727Z,101061.16
2018-09-17T12:46:41.259Z,101069.02
2018-09-17T12:49:11.402Z,101050.50
2018-09-17T12:51:40.828Z,101047.04
2018-09-17T12:54:10.171Z,101048.98
2018-09-17T12:56:39.691Z,101042.08
2018-09-17T12:59:09.831Z,101047.09
2018-09-17T13:01:39.259Z,101043.66
2018-09-17T13:04:08.842Z,101036.67
2018-09-17T13:06:38.427Z,101033.05
2018-09-17T13:09:10.266Z,101028.42
2018-09-17T13:11:40.166Z,101031.56
2018-09-17T13:14:09.445Z,101030.89
2018-09-17T13:16:40.223Z,101028.83
2018-09-17T13:19:11.601Z,101024.55
2018-09-17T13:21:41.051Z,101024.92
2018-09-17T13:24:11.130Z,101026.91
2018-09-17T13:26:40.339Z,101026.72
2018-09-17T13:29:09.903Z,101020.17
2018-09-17T13:31:39.264Z,101023.06
2018-09-17T13:34:08.642Z,101013.94
2018-09-17T13:36:37.874Z,101015.55
2018-09-17T13:39:07.758Z,101011.63
2018-09-17T13:41:37.285Z,101006.25
2018-09-17T13:44:07.279Z,101004.27
2018-09-17T13:46:36.716Z,100995.58
2018-09-17T13:49:06.240Z,100999.72
2018-09-17T13:51:35.715Z,100985.30
2018-09-17T13:54:05.241Z,100993.28
2018-09-17T13:56:34.750Z,100991.42
2018-09-17T13:59:04.381Z,100977.75
2018-09-17T14:01:34.387Z,100976.15
2018-09-17T14:04:03.977Z,100978.66
2018-09-17T14:06:33.332Z,100971.56
2018-09-17T14:09:02.940Z,100968.52
2018-09-17T14:11:32.186Z,100963.67
2018-09-17T14:14:01.654Z,100959.18
2018-09-17T14:16:35.120Z,100961.28
2018-09-17T14:19:04.825Z,100959.23
2018-09-17T14:21:35.093Z,100954.88
2018-09-17T14:24:04.608Z,100947.61
2018-09-17T14:26:34.128Z,100941.52
2018-09-17T14:29:03.591Z,100941.63
2018-09-17T14:31:38.015Z,100939.39
2018-09-17T14:34:07.730Z,100932.67
2018-09-17T14:36:37.504Z,100931.27
2018-09-17T14:39:09.009Z,100924.24
2018-09-17T14:41:38.798Z,100917.56
2018-09-17T14:44:08.278Z,100926.53
2018-09-17T14:46:38.334Z,100912.77
2018-09-17T14:49:07.655Z,100907.91
2018-09-17T14:51:37.171Z,100903.73
2018-09-17T14:54:06.654Z,100898.83
2018-09-17T14:56:36.150Z,100892.31
2018-09-17T14:59:06.309Z,100897.13
2018-09-17T15:01:35.879Z,100897.24
2018-09-17T15:04:05.577Z,100890.55
2018-09-17T15:06:35.006Z,100890.36
2018-09-17T15:09:06.352Z,100886.70
2018-09-17T15:11:35.868Z,100887.55
2018-09-17T15:14:05.502Z,100876.65
2018-09-17T15:16:35.089Z,100877.67
2018-09-17T15:19:04.566Z,100872.73
2018-09-17T15:21:34.266Z,100868.84
2018-09-17T15:24:04.088Z,100870.36
2018-09-17T15:26:33.185Z,100872.23
2018-09-17T15:29:02.612Z,100871.31
2018-09-17T15:31:32.323Z,100867.78
2018-09-17T15:34:01.839Z,100863.87
2018-09-17T15:36:31.538Z,100861.91
2018-09-17T15:39:01.008Z,100858.49
2018-09-17T15:41:30.724Z,100857.59
2018-09-17T15:44:00.086Z,100857.77
2018-09-17T15:46:29.730Z,100856.47
2018-09-17T15:48:59.227Z,100853.02
2018-09-17T15:51:29.574Z,100847.87
2018-09-17T15:53:58.980Z,100840.08
2018-09-17T15:56:28.357Z,100851.89
2018-09-17T15:58:58.102Z,100843.18
2018-09-17T16:01:28.026Z,100841.06
2018-09-17T16:03:58.007Z,100839.73
2018-09-17T16:06:27.414Z,100836.55
2018-09-17T16:08:57.305Z,100837.84
2018-09-17T16:11:26.839Z,100835.64
2018-09-17T16:13:56.525Z,100834.88
2018-09-17T16:16:25.747Z,100836.24
2018-09-17T16:18:55.169Z,100833.25
2018-09-17T16:21:24.498Z,100836.55
2018-09-17T16:23:54.423Z,100833.89
2018-09-17T16:26:24.337Z,100834.06
2018-09-17T16:28:54.021Z,100826.20
2018-09-17T16:31:23.611Z,100827.75
2018-09-17T16:33:53.430Z,100830.19
2018-09-17T16:36:23.343Z,100832.70
2018-09-17T16:38:53.802Z,100830.02
2018-09-17T16:41:23.754Z,100825.13
2018-09-17T16:43:53.038Z,100829.20
2018-09-17T16:46:23.105Z,100831.42
2018-09-17T16:48:52.291Z,100826.84
2018-09-17T16:51:22.008Z,100825.67
2018-09-17T16:53:51.479Z,100822.73
2018-09-17T16:56:20.727Z,100827.52
2018-09-17T16:58:50.384Z,100830.70
2018-09-17T17:01:19.597Z,100838.00
2018-09-17T17:03:48.851Z,100834.25
2018-09-17T17:06:18.893Z,100834.50
2018-09-17T17:08:48.567Z,100831.34
2018-09-17T17:11:18.053Z,100831.95
2018-09-17T17:13:47.904Z,100833.08
2018-09-17T17:16:17.804Z,100826.84
2018-09-17T17:18:47.231Z,100831.93
2018-09-17T17:21:16.863Z,100825.09
2018-09-17T17:23:46.372Z,100823.30
2018-09-17T17:26:15.919Z,100817.54
2018-09-17T17:28:45.412Z,100826.87
2018-09-17T17:31:15.727Z,100824.92
2018-09-17T17:33:45.656Z,100825.52
2018-09-17T17:36:15.242Z,100824.75
2018-09-17T17:38:44.652Z,100827.67
2018-09-17T17:41:14.110Z,100831.23
2018-09-17T17:43:43.509Z,100820.30
2018-09-17T17:46:13.771Z,100828.42
2018-09-17T17:48:43.113Z,100822.36
2018-09-17T17:51:13.163Z,100822.52
2018-09-17T17:53:42.598Z,100820.90
2018-09-17T17:56:12.897Z,100823.48
2018-09-17T17:58:42.348Z,100827.73
2018-09-17T18:01:11.897Z,100827.96
2018-09-17T18:03:41.056Z,100831.91
2018-09-17T18:06:11.234Z,100823.70
2018-09-17T18:08:40.751Z,100830.58
2018-09-17T18:11:10.243Z,100833.58
2018-09-17T18:13:39.757Z,100830.12
2018-09-17T18:16:09.243Z,100841.88
2018-09-17T18:18:38.801Z,100839.27
2018-09-17T18:21:08.790Z,100837.95
2018-09-17T18:23:37.963Z,100840.38
2018-09-17T18:26:07.463Z,100838.64
2018-09-17T18:28:36.984Z,100837.92
2018-09-17T18:31:06.892Z,100836.02
2018-09-17T18:33:36.203Z,100839.34
2018-09-17T18:36:05.733Z,100839.84
2018-09-17T18:38:35.667Z,100828.52
2018-09-17T18:41:05.370Z,100831.13
2018-09-17T18:43:35.251Z,100831.64
2018-09-17T18:46:05.232Z,100829.97
2018-09-17T18:48:34.972Z,100837.53
2018-09-17T18:51:04.223Z,100841.97
2018-09-17T18:53:34.038Z,100834.69
2018-09-17T18:56:03.583Z,100837.58
2018-09-17T18:58:33.075Z,100840.77
2018-09-17T19:01:02.911Z,100836.92
2018-09-17T19:03:32.826Z,100830.91
2018-09-17T19:06:02.298Z,100833.61
2018-09-17T19:08:31.710Z,100838.13
2018-09-17T19:11:02.034Z,100838.19
2018-09-17T19:13:31.535Z,100831.86
2018-09-17T19:16:01.163Z,100838.69
2018-09-17T19:18:30.551Z,100836.90
2018-09-17T19:21:00.348Z,100834.45
2018-09-17T19:23:34.992Z,100829.38
2018-09-17T19:26:04.455Z,100829.17
2018-09-17T19:28:39.053Z,100833.09
2018-09-17T19:31:08.563Z,100830.27
2018-09-17T19:33:38.241Z,100840.55
2018-09-17T19:36:08.405Z,100834.13
2018-09-17T19:38:43.101Z,100836.89
2018-09-17T19:41:12.708Z,100838.23
2018-09-17T19:43:48.589Z,100837.70
2018-09-17T19:46:19.324Z,100835.80
2018-09-17T19:48:49.523Z,100841.84
2018-09-17T19:51:24.417Z,100834.92
2018-09-17T19:53:54.164Z,100833.58
2018-09-17T19:56:23.738Z,100833.47
2018-09-17T19:58:58.328Z,100836.11
2018-09-17T20:01:27.590Z,100829.42
2018-09-17T20:04:02.248Z,100832.25
2018-09-17T20:06:31.723Z,100831.25
2018-09-17T20:09:01.014Z,100826.05
2018-09-17T20:11:30.514Z,100828.76
2018-09-17T20:14:00.032Z,100831.38
2018-09-17T20:16:30.230Z,100828.52
2018-09-17T20:18:59.495Z,100834.56
2018-09-17T20:21:29.337Z,100840.12
2018-09-17T20:23:59.036Z,100843.75
2018-09-17T20:26:28.718Z,100839.33
2018-09-17T20:28:58.337Z,100844.73
2018-09-17T20:31:27.791Z,100835.45
2018-09-17T20:33:57.135Z,100841.14
2018-09-17T20:36:26.587Z,100839.67
2018-09-17T20:38:56.106Z,100839.94
2018-09-17T20:41:25.361Z,100838.41
2018-09-17T20:43:54.670Z,100838.23
2018-09-17T20:46:24.623Z,100840.97
2018-09-17T20:48:54.159Z,100839.63
2018-09-17T20:51:23.988Z,100838.55
2018-09-17T20:53:53.539Z,100828.69
2018-09-17T20:56:22.783Z,100830.45
2018-09-17T20:58:52.114Z,100830.21
2018-09-17T21:01:21.965Z,100834.80
2018-09-17T21:03:51.330Z,100834.80
2018-09-17T21:06:21.047Z,100831.02
2018-09-17T21:08:51.028Z,100834.73
2018-09-17T21:11:20.470Z,100831.95
2018-09-17T21:13:49.656Z,100835.84
2018-09-17T21:16:19.471Z,100831.28
2018-09-17T21:18:49.810Z,100829.80
2018-09-17T21:21:19.440Z,100830.00
2018-09-17T21:23:49.016Z,100830.82
2018-09-17T21:26:18.995Z,100822.38
2018-09-17T21:28:48.676Z,100826.90
2018-09-17T21:31:18.397Z,100819.52
2018-09-17T21:33:48.593Z,100819.19
2018-09-17T21:36:17.954Z,100823.72
2018-09-17T21:38:48.157Z,100819.59
2018-09-17T21:41:17.594Z,100820.27
2018-09-17T21:43:47.882Z,100820.15
2018-09-17T21:46:17.821Z,100818.20
2018-09-17T21:48:47.197Z,100822.73
2018-09-17T21:51:16.660Z,100818.63
2018-09-17T21:53:46.142Z,100814.08
2018-09-17T21:56:15.654Z,100814.00
2018-09-17T21:58:45.630Z,100811.31
2018-09-17T22:01:19.187Z,100813.38
2018-09-17T22:03:50.029Z,100810.47
2018-09-17T22:06:19.612Z,100817.41
2018-09-17T22:08:49.123Z,100814.13
2018-09-17T22:11:18.602Z,100816.00
2018-09-17T22:13:48.139Z,100813.98
2018-09-17T22:16:17.642Z,100812.55
2018-09-17T22:18:47.718Z,100814.20
2018-09-17T22:21:17.263Z,100808.84
2018-09-17T22:23:46.755Z,100794.27
2018-09-17T22:26:16.238Z,100810.03
2018-09-17T22:28:45.766Z,100805.82
2018-09-17T22:31:15.458Z,100803.03
2018-09-17T22:33:44.787Z,100807.70
2018-09-17T22:36:14.255Z,100799.11
2018-09-17T22:38:43.576Z,100798.81
2018-09-17T22:41:13.111Z,100794.99
2018-09-17T22:43:42.794Z,100795.56
2018-09-17T22:46:12.342Z,100795.27
2018-09-17T22:48:41.790Z,100797.07
2018-09-17T22:51:11.396Z,100797.52
2018-09-17T22:53:40.819Z,100801.41
2018-09-17T22:56:10.554Z,100807.07
2018-09-17T22:58:40.514Z,100797.64
2018-09-17T23:01:10.518Z,100789.41
2018-09-17T23:03:39.672Z,100785.58
2018-09-17T23:06:08.854Z,100788.63
2018-09-17T23:08:39.078Z,100788.33
2018-09-17T23:11:09.172Z,100783.88
2018-09-17T23:13:39.305Z,100783.25
2018-09-17T23:16:08.843Z,100794.30
2018-09-17T23:18:38.301Z,100784.81
2018-09-17T23:21:08.156Z,100786.66
2018-09-17T23:23:38.064Z,100785.22
2018-09-17T23:26:07.353Z,100780.88
2018-09-17T23:28:36.758Z,100783.72
2018-09-17T23:31:06.265Z,100782.07
2018-09-17T23:33:35.923Z,100787.40
2018-09-17T23:36:05.502Z,100778.42
2018-09-17T23:38:35.051Z,100757.79
2018-09-17T23:41:04.595Z,100777.14
2018-09-17T23:43:34.044Z,100769.97
2018-09-17T23:46:03.756Z,100772.69
2018-09-17T23:48:33.464Z,100771.38
2018-09-17T23:51:03.539Z,100769.72
2018-09-17T23:53:33.374Z,100766.77
2018-09-17T23:56:03.006Z,100764.98
2018-09-17T23:58:32.480Z,100769.44
